sensor_id;sensor_type;location;lat;lon;timestamp;P1;durP1;ratioP1;P2;durP2;ratioP2
18194;SDS011;9223;50.988;3.162;2023-04-06T00:01:07;31.73;;;20.02;;
18194;SDS011;9223;50.988;3.162;2023-04-06T00:07:10;30.95;;;19.08;;
18194;SDS011;9223;50.988;3.162;2023-04-06T00:13:14;31.77;;;19.15;;
18194;SDS011;9223;50.988;3.162;2023-04-06T00:19:19;30.88;;;18.70;;
18194;SDS011;9223;50.988;3.162;2023-04-06T00:25:22;34.30;;;18.70;;
18194;SDS011;9223;50.988;3.162;2023-04-06T00:31:26;30.42;;;19.08;;
18194;SDS011;9223;50.988;3.162;2023-04-06T00:37:31;32.00;;;18.88;;
18194;SDS011;9223;50.988;3.162;2023-04-06T00:43:35;30.17;;;18.02;;
18194;SDS011;9223;50.988;3.162;2023-04-06T00:49:38;31.25;;;17.75;;
18194;SDS011;9223;50.988;3.162;2023-04-06T00:55:43;27.15;;;16.02;;
18194;SDS011;9223;50.988;3.162;2023-04-06T01:01:47;26.10;;;15.93;;
18194;SDS011;9223;50.988;3.162;2023-04-06T01:07:51;25.50;;;16.08;;
18194;SDS011;9223;50.988;3.162;2023-04-06T01:13:56;25.05;;;14.85;;
18194;SDS011;9223;50.988;3.162;2023-04-06T01:20:01;25.25;;;15.27;;
18194;SDS011;9223;50.988;3.162;2023-04-06T01:26:06;26.67;;;14.35;;
18194;SDS011;9223;50.988;3.162;2023-04-06T01:32:10;28.42;;;14.90;;
18194;SDS011;9223;50.988;3.162;2023-04-06T01:38:13;21.60;;;13.93;;
18194;SDS011;9223;50.988;3.162;2023-04-06T01:44:18;24.55;;;14.40;;
18194;SDS011;9223;50.988;3.162;2023-04-06T01:50:22;25.55;;;14.25;;
18194;SDS011;9223;50.988;3.162;2023-04-06T01:56:25;22.30;;;13.60;;
18194;SDS011;9223;50.988;3.162;2023-04-06T02:02:30;24.58;;;15.52;;
18194;SDS011;9223;50.988;3.162;2023-04-06T02:08:34;23.60;;;15.13;;
18194;SDS011;9223;50.988;3.162;2023-04-06T02:14:37;24.13;;;13.60;;
18194;SDS011;9223;50.988;3.162;2023-04-06T02:20:42;21.45;;;13.63;;
18194;SDS011;9223;50.988;3.162;2023-04-06T02:26:47;21.90;;;13.98;;
18194;SDS011;9223;50.988;3.162;2023-04-06T02:32:50;22.13;;;13.68;;
18194;SDS011;9223;50.988;3.162;2023-04-06T02:38:55;20.88;;;13.95;;
18194;SDS011;9223;50.988;3.162;2023-04-06T02:44:59;18.60;;;13.75;;
18194;SDS011;9223;50.988;3.162;2023-04-06T02:51:02;20.40;;;12.90;;
18194;SDS011;9223;50.988;3.162;2023-04-06T02:57:08;21.65;;;12.52;;
18194;SDS011;9223;50.988;3.162;2023-04-06T03:03:12;20.48;;;13.70;;
18194;SDS011;9223;50.988;3.162;2023-04-06T03:09:16;18.83;;;12.93;;
18194;SDS011;9223;50.988;3.162;2023-04-06T03:15:20;21.55;;;13.93;;
18194;SDS011;9223;50.988;3.162;2023-04-06T03:21:24;19.60;;;13.38;;
18194;SDS011;9223;50.988;3.162;2023-04-06T03:27:27;20.50;;;14.77;;
18194;SDS011;9223;50.988;3.162;2023-04-06T03:33:33;18.95;;;13.70;;
18194;SDS011;9223;50.988;3.162;2023-04-06T03:39:36;20.90;;;14.38;;
18194;SDS011;9223;50.988;3.162;2023-04-06T03:45:40;17.70;;;13.13;;
18194;SDS011;9223;50.988;3.162;2023-04-06T03:51:45;17.95;;;12.00;;
18194;SDS011;9223;50.988;3.162;2023-04-06T03:57:49;22.15;;;12.73;;
18194;SDS011;9223;50.988;3.162;2023-04-06T04:03:52;16.52;;;11.93;;
18194;SDS011;9223;50.988;3.162;2023-04-06T04:09:58;16.60;;;11.68;;
18194;SDS011;9223;50.988;3.162;2023-04-06T04:16:01;17.20;;;11.18;;
18194;SDS011;9223;50.988;3.162;2023-04-06T04:22:05;17.08;;;11.43;;
18194;SDS011;9223;50.988;3.162;2023-04-06T04:28:10;16.05;;;10.02;;
18194;SDS011;9223;50.988;3.162;2023-04-06T04:34:14;12.75;;;8.75;;
18194;SDS011;9223;50.988;3.162;2023-04-06T04:40:18;13.63;;;9.55;;
18194;SDS011;9223;50.988;3.162;2023-04-06T04:46:23;13.23;;;7.97;;
18194;SDS011;9223;50.988;3.162;2023-04-06T04:52:27;10.48;;;7.93;;
18194;SDS011;9223;50.988;3.162;2023-04-06T04:58:30;10.98;;;7.20;;
18194;SDS011;9223;50.988;3.162;2023-04-06T05:04:35;10.07;;;7.15;;
18194;SDS011;9223;50.988;3.162;2023-04-06T05:10:39;11.57;;;7.28;;
18194;SDS011;9223;50.988;3.162;2023-04-06T05:16:43;8.57;;;6.35;;
18194;SDS011;9223;50.988;3.162;2023-04-06T05:22:48;8.05;;;6.18;;
18194;SDS011;9223;50.988;3.162;2023-04-06T05:28:51;8.13;;;5.72;;
18194;SDS011;9223;50.988;3.162;2023-04-06T05:34:55;7.00;;;4.95;;
18194;SDS011;9223;50.988;3.162;2023-04-06T05:41:00;5.75;;;4.60;;
18194;SDS011;9223;50.988;3.162;2023-04-06T05:47:04;5.20;;;4.07;;
18194;SDS011;9223;50.988;3.162;2023-04-06T05:53:07;6.93;;;4.90;;
18194;SDS011;9223;50.988;3.162;2023-04-06T05:59:12;10.35;;;4.93;;
18194;SDS011;9223;50.988;3.162;2023-04-06T06:05:16;6.35;;;5.45;;
18194;SDS011;9223;50.988;3.162;2023-04-06T06:11:20;7.45;;;5.00;;
18194;SDS011;9223;50.988;3.162;2023-04-06T06:17:25;6.65;;;4.68;;
18194;SDS011;9223;50.988;3.162;2023-04-06T06:23:28;7.47;;;5.45;;
18194;SDS011;9223;50.988;3.162;2023-04-06T06:29:32;8.90;;;7.20;;
18194;SDS011;9223;50.988;3.162;2023-04-06T06:35:37;10.82;;;9.13;;
18194;SDS011;9223;50.988;3.162;2023-04-06T06:41:41;8.23;;;6.40;;
18194;SDS011;9223;50.988;3.162;2023-04-06T06:47:44;9.25;;;6.70;;
18194;SDS011;9223;50.988;3.162;2023-04-06T06:53:49;6.45;;;5.15;;
18194;SDS011;9223;50.988;3.162;2023-04-06T06:59:52;6.30;;;5.38;;
18194;SDS011;9223;50.988;3.162;2023-04-06T07:05:56;5.18;;;3.83;;
18194;SDS011;9223;50.988;3.162;2023-04-06T07:12:01;7.07;;;4.78;;
18194;SDS011;9223;50.988;3.162;2023-04-06T07:18:04;7.78;;;4.97;;
18194;SDS011;9223;50.988;3.162;2023-04-06T07:24:08;6.43;;;4.80;;
18194;SDS011;9223;50.988;3.162;2023-04-06T07:30:13;8.85;;;5.03;;
18194;SDS011;9223;50.988;3.162;2023-04-06T07:36:17;4.78;;;4.28;;
18194;SDS011;9223;50.988;3.162;2023-04-06T07:42:20;9.80;;;5.78;;
18194;SDS011;9223;50.988;3.162;2023-04-06T07:48:25;9.35;;;6.78;;
18194;SDS011;9223;50.988;3.162;2023-04-06T07:54:29;9.63;;;5.50;;
18194;SDS011;9223;50.988;3.162;2023-04-06T08:00:32;10.70;;;6.75;;
18194;SDS011;9223;50.988;3.162;2023-04-06T08:06:37;11.02;;;7.03;;
18194;SDS011;9223;50.988;3.162;2023-04-06T08:12:42;10.07;;;6.80;;
18194;SDS011;9223;50.988;3.162;2023-04-06T08:18:45;11.05;;;8.25;;
18194;SDS011;9223;50.988;3.162;2023-04-06T08:24:50;13.93;;;8.02;;
18194;SDS011;9223;50.988;3.162;2023-04-06T08:30:54;9.40;;;6.60;;
18194;SDS011;9223;50.988;3.162;2023-04-06T08:36:57;14.63;;;9.55;;
18194;SDS011;9223;50.988;3.162;2023-04-06T08:43:02;11.60;;;8.20;;
18194;SDS011;9223;50.988;3.162;2023-04-06T08:49:09;15.65;;;10.23;;
18194;SDS011;9223;50.988;3.162;2023-04-06T08:55:13;14.05;;;9.25;;
18194;SDS011;9223;50.988;3.162;2023-04-06T09:01:20;16.73;;;11.63;;
18194;SDS011;9223;50.988;3.162;2023-04-06T09:07:23;8.88;;;4.90;;
18194;SDS011;9223;50.988;3.162;2023-04-06T09:13:27;8.35;;;6.22;;
18194;SDS011;9223;50.988;3.162;2023-04-06T09:19:32;16.73;;;12.18;;
18194;SDS011;9223;50.988;3.162;2023-04-06T09:25:36;10.68;;;8.70;;
18194;SDS011;9223;50.988;3.162;2023-04-06T09:31:39;12.27;;;9.13;;
18194;SDS011;9223;50.988;3.162;2023-04-06T09:37:44;11.95;;;8.85;;
18194;SDS011;9223;50.988;3.162;2023-04-06T09:43:49;9.35;;;7.53;;
18194;SDS011;9223;50.988;3.162;2023-04-06T09:49:54;9.90;;;7.15;;
18194;SDS011;9223;50.988;3.162;2023-04-06T09:56:01;9.70;;;7.97;;
18194;SDS011;9223;50.988;3.162;2023-04-06T10:02:05;7.25;;;4.50;;
18194;SDS011;9223;50.988;3.162;2023-04-06T10:08:11;5.68;;;4.43;;
18194;SDS011;9223;50.988;3.162;2023-04-06T10:14:18;5.90;;;4.30;;
18194;SDS011;9223;50.988;3.162;2023-04-06T10:20:22;6.05;;;4.43;;
18194;SDS011;9223;50.988;3.162;2023-04-06T10:26:26;6.03;;;4.78;;
18194;SDS011;9223;50.988;3.162;2023-04-06T10:32:35;5.97;;;3.80;;
18194;SDS011;9223;50.988;3.162;2023-04-06T10:38:39;8.93;;;7.30;;
18194;SDS011;9223;50.988;3.162;2023-04-06T10:44:43;5.75;;;4.72;;
18194;SDS011;9223;50.988;3.162;2023-04-06T10:50:50;6.60;;;5.95;;
18194;SDS011;9223;50.988;3.162;2023-04-06T10:56:53;5.57;;;4.28;;
18194;SDS011;9223;50.988;3.162;2023-04-06T11:02:58;7.10;;;5.93;;
18194;SDS011;9223;50.988;3.162;2023-04-06T11:09:04;7.47;;;5.65;;
18194;SDS011;9223;50.988;3.162;2023-04-06T11:15:08;5.70;;;5.03;;
18194;SDS011;9223;50.988;3.162;2023-04-06T11:21:14;6.60;;;5.32;;
18194;SDS011;9223;50.988;3.162;2023-04-06T11:27:19;5.78;;;5.18;;
18194;SDS011;9223;50.988;3.162;2023-04-06T11:33:23;6.07;;;4.95;;
18194;SDS011;9223;50.988;3.162;2023-04-06T11:39:27;9.73;;;7.18;;
18194;SDS011;9223;50.988;3.162;2023-04-06T11:45:40;7.43;;;5.00;;
18194;SDS011;9223;50.988;3.162;2023-04-06T11:51:45;5.78;;;4.53;;
18194;SDS011;9223;50.988;3.162;2023-04-06T11:57:49;6.82;;;5.78;;
18194;SDS011;9223;50.988;3.162;2023-04-06T12:03:54;5.60;;;4.32;;
18194;SDS011;9223;50.988;3.162;2023-04-06T12:09:58;7.43;;;6.50;;
18194;SDS011;9223;50.988;3.162;2023-04-06T12:16:01;7.43;;;5.35;;
18194;SDS011;9223;50.988;3.162;2023-04-06T12:22:07;5.80;;;5.03;;
18194;SDS011;9223;50.988;3.162;2023-04-06T12:28:10;6.40;;;4.82;;
18194;SDS011;9223;50.988;3.162;2023-04-06T12:34:14;5.30;;;4.38;;
18194;SDS011;9223;50.988;3.162;2023-04-06T12:40:19;6.95;;;6.13;;
18194;SDS011;9223;50.988;3.162;2023-04-06T12:46:23;6.40;;;4.90;;
18194;SDS011;9223;50.988;3.162;2023-04-06T12:52:27;5.03;;;3.60;;
18194;SDS011;9223;50.988;3.162;2023-04-06T12:58:34;6.95;;;3.67;;
18194;SDS011;9223;50.988;3.162;2023-04-06T13:04:37;4.72;;;3.30;;
18194;SDS011;9223;50.988;3.162;2023-04-06T13:10:43;7.10;;;3.92;;
18194;SDS011;9223;50.988;3.162;2023-04-06T13:16:48;5.57;;;4.20;;
18194;SDS011;9223;50.988;3.162;2023-04-06T13:22:52;6.23;;;4.53;;
18194;SDS011;9223;50.988;3.162;2023-04-06T13:28:56;5.70;;;3.53;;
18194;SDS011;9223;50.988;3.162;2023-04-06T13:35:01;3.10;;;2.13;;
18194;SDS011;9223;50.988;3.162;2023-04-06T13:41:05;4.38;;;2.92;;
18194;SDS011;9223;50.988;3.162;2023-04-06T13:47:08;5.05;;;3.00;;
18194;SDS011;9223;50.988;3.162;2023-04-06T13:53:13;6.25;;;3.63;;
18194;SDS011;9223;50.988;3.162;2023-04-06T13:59:16;6.53;;;3.45;;
18194;SDS011;9223;50.988;3.162;2023-04-06T14:05:20;5.47;;;3.47;;
18194;SDS011;9223;50.988;3.162;2023-04-06T14:11:26;6.43;;;3.83;;
18194;SDS011;9223;50.988;3.162;2023-04-06T14:17:29;11.60;;;3.92;;
18194;SDS011;9223;50.988;3.162;2023-04-06T14:23:33;13.35;;;4.60;;
18194;SDS011;9223;50.988;3.162;2023-04-06T14:29:38;6.40;;;3.20;;
18194;SDS011;9223;50.988;3.162;2023-04-06T14:35:42;10.18;;;3.47;;
18194;SDS011;9223;50.988;3.162;2023-04-06T14:41:46;8.65;;;3.17;;
18194;SDS011;9223;50.988;3.162;2023-04-06T14:47:52;6.45;;;2.42;;
18194;SDS011;9223;50.988;3.162;2023-04-06T14:53:56;4.95;;;2.70;;
18194;SDS011;9223;50.988;3.162;2023-04-06T14:59:59;3.75;;;1.80;;
18194;SDS011;9223;50.988;3.162;2023-04-06T15:06:11;6.75;;;2.83;;
18194;SDS011;9223;50.988;3.162;2023-04-06T15:12:16;8.13;;;3.00;;
18194;SDS011;9223;50.988;3.162;2023-04-06T15:18:19;15.00;;;4.97;;
18194;SDS011;9223;50.988;3.162;2023-04-06T15:24:24;9.20;;;3.17;;
18194;SDS011;9223;50.988;3.162;2023-04-06T15:30:28;6.32;;;2.80;;
18194;SDS011;9223;50.988;3.162;2023-04-06T15:36:31;7.97;;;2.83;;
18194;SDS011;9223;50.988;3.162;2023-04-06T15:42:36;12.48;;;3.55;;
18194;SDS011;9223;50.988;3.162;2023-04-06T15:48:40;6.65;;;3.00;;
18194;SDS011;9223;50.988;3.162;2023-04-06T15:54:44;4.53;;;2.65;;
18194;SDS011;9223;50.988;3.162;2023-04-06T16:00:49;10.23;;;3.42;;
18194;SDS011;9223;50.988;3.162;2023-04-06T16:06:52;11.75;;;4.18;;
18194;SDS011;9223;50.988;3.162;2023-04-06T16:12:56;10.73;;;3.67;;
18194;SDS011;9223;50.988;3.162;2023-04-06T16:19:01;3.85;;;1.52;;
18194;SDS011;9223;50.988;3.162;2023-04-06T16:25:05;5.25;;;1.95;;
18194;SDS011;9223;50.988;3.162;2023-04-06T16:31:15;3.13;;;1.10;;
18194;SDS011;9223;50.988;3.162;2023-04-06T16:37:20;5.68;;;1.60;;
18194;SDS011;9223;50.988;3.162;2023-04-06T16:43:24;8.02;;;1.90;;
18194;SDS011;9223;50.988;3.162;2023-04-06T16:49:27;3.15;;;1.42;;
18194;SDS011;9223;50.988;3.162;2023-04-06T16:55:32;3.45;;;1.30;;
18194;SDS011;9223;50.988;3.162;2023-04-06T17:01:36;2.97;;;1.48;;
18194;SDS011;9223;50.988;3.162;2023-04-06T17:07:40;2.78;;;1.52;;
18194;SDS011;9223;50.988;3.162;2023-04-06T17:13:46;6.25;;;1.70;;
18194;SDS011;9223;50.988;3.162;2023-04-06T17:19:50;3.92;;;2.15;;
18194;SDS011;9223;50.988;3.162;2023-04-06T17:25:54;5.47;;;2.35;;
18194;SDS011;9223;50.988;3.162;2023-04-06T17:31:59;4.97;;;2.90;;
18194;SDS011;9223;50.988;3.162;2023-04-06T17:38:03;5.55;;;3.00;;
18194;SDS011;9223;50.988;3.162;2023-04-06T17:44:08;14.07;;;7.05;;
18194;SDS011;9223;50.988;3.162;2023-04-06T17:50:13;7.57;;;3.85;;
18194;SDS011;9223;50.988;3.162;2023-04-06T17:56:17;11.98;;;3.60;;
18194;SDS011;9223;50.988;3.162;2023-04-06T18:02:22;14.05;;;4.20;;
18194;SDS011;9223;50.988;3.162;2023-04-06T18:08:27;11.82;;;4.85;;
18194;SDS011;9223;50.988;3.162;2023-04-06T18:14:30;14.38;;;4.57;;
18194;SDS011;9223;50.988;3.162;2023-04-06T18:20:38;13.25;;;3.33;;
18194;SDS011;9223;50.988;3.162;2023-04-06T18:26:43;14.75;;;3.67;;
18194;SDS011;9223;50.988;3.162;2023-04-06T18:32:47;14.48;;;4.55;;
18194;SDS011;9223;50.988;3.162;2023-04-06T18:38:50;11.55;;;3.10;;
18194;SDS011;9223;50.988;3.162;2023-04-06T18:44:55;7.18;;;2.45;;
18194;SDS011;9223;50.988;3.162;2023-04-06T18:50:59;9.88;;;2.47;;
18194;SDS011;9223;50.988;3.162;2023-04-06T18:57:04;7.72;;;2.50;;
18194;SDS011;9223;50.988;3.162;2023-04-06T19:03:09;10.38;;;2.67;;
18194;SDS011;9223;50.988;3.162;2023-04-06T19:09:12;8.98;;;2.67;;
18194;SDS011;9223;50.988;3.162;2023-04-06T19:15:16;11.98;;;2.97;;
18194;SDS011;9223;50.988;3.162;2023-04-06T19:21:22;7.43;;;2.63;;
18194;SDS011;9223;50.988;3.162;2023-04-06T19:27:26;8.90;;;3.08;;
18194;SDS011;9223;50.988;3.162;2023-04-06T19:33:30;6.53;;;2.67;;
18194;SDS011;9223;50.988;3.162;2023-04-06T19:39:34;6.72;;;2.25;;
18194;SDS011;9223;50.988;3.162;2023-04-06T19:45:38;5.97;;;1.90;;
18194;SDS011;9223;50.988;3.162;2023-04-06T19:51:42;2.00;;;1.70;;
18194;SDS011;9223;50.988;3.162;2023-04-06T19:57:47;2.08;;;1.20;;
18194;SDS011;9223;50.988;3.162;2023-04-06T20:03:50;3.22;;;1.85;;
18194;SDS011;9223;50.988;3.162;2023-04-06T20:09:54;3.30;;;1.50;;
18194;SDS011;9223;50.988;3.162;2023-04-06T20:15:59;2.53;;;1.60;;
18194;SDS011;9223;50.988;3.162;2023-04-06T20:22:03;2.35;;;1.38;;
18194;SDS011;9223;50.988;3.162;2023-04-06T20:28:06;2.05;;;1.60;;
18194;SDS011;9223;50.988;3.162;2023-04-06T20:34:12;1.83;;;1.50;;
18194;SDS011;9223;50.988;3.162;2023-04-06T20:40:16;3.55;;;1.83;;
18194;SDS011;9223;50.988;3.162;2023-04-06T20:46:20;4.75;;;1.90;;
18194;SDS011;9223;50.988;3.162;2023-04-06T20:52:26;3.10;;;2.20;;
18194;SDS011;9223;50.988;3.162;2023-04-06T20:58:30;2.63;;;2.10;;
18194;SDS011;9223;50.988;3.162;2023-04-06T21:04:33;3.25;;;2.00;;
18194;SDS011;9223;50.988;3.162;2023-04-06T21:10:39;2.63;;;2.05;;
18194;SDS011;9223;50.988;3.162;2023-04-06T21:16:42;3.25;;;2.53;;
18194;SDS011;9223;50.988;3.162;2023-04-06T21:22:46;2.60;;;2.10;;
18194;SDS011;9223;50.988;3.162;2023-04-06T21:28:51;2.97;;;2.42;;
18194;SDS011;9223;50.988;3.162;2023-04-06T21:34:54;3.85;;;2.60;;
18194;SDS011;9223;50.988;3.162;2023-04-06T21:40:58;4.82;;;2.58;;
18194;SDS011;9223;50.988;3.162;2023-04-06T21:47:02;3.28;;;2.33;;
18194;SDS011;9223;50.988;3.162;2023-04-06T21:53:06;4.28;;;2.70;;
18194;SDS011;9223;50.988;3.162;2023-04-06T21:59:09;4.22;;;2.72;;
18194;SDS011;9223;50.988;3.162;2023-04-06T22:05:14;5.18;;;3.15;;
18194;SDS011;9223;50.988;3.162;2023-04-06T22:11:18;5.32;;;3.13;;
18194;SDS011;9223;50.988;3.162;2023-04-06T22:17:22;5.18;;;3.28;;
18194;SDS011;9223;50.988;3.162;2023-04-06T22:23:26;5.72;;;2.90;;
18194;SDS011;9223;50.988;3.162;2023-04-06T22:29:30;6.03;;;3.13;;
18194;SDS011;9223;50.988;3.162;2023-04-06T22:35:33;4.10;;;2.90;;
18194;SDS011;9223;50.988;3.162;2023-04-06T22:41:38;5.22;;;2.30;;
18194;SDS011;9223;50.988;3.162;2023-04-06T22:47:42;4.93;;;2.75;;
18194;SDS011;9223;50.988;3.162;2023-04-06T22:53:45;4.72;;;1.70;;
18194;SDS011;9223;50.988;3.162;2023-04-06T22:59:52;3.22;;;2.28;;
18194;SDS011;9223;50.988;3.162;2023-04-06T23:05:56;4.63;;;2.50;;
18194;SDS011;9223;50.988;3.162;2023-04-06T23:12:00;4.57;;;2.28;;
18194;SDS011;9223;50.988;3.162;2023-04-06T23:18:05;4.90;;;3.35;;
18194;SDS011;9223;50.988;3.162;2023-04-06T23:24:08;4.03;;;3.10;;
18194;SDS011;9223;50.988;3.162;2023-04-06T23:30:12;4.10;;;3.05;;
18194;SDS011;9223;50.988;3.162;2023-04-06T23:36:17;4.38;;;3.40;;
18194;SDS011;9223;50.988;3.162;2023-04-06T23:42:21;6.50;;;2.70;;
18194;SDS011;9223;50.988;3.162;2023-04-06T23:48:29;4.30;;;3.08;;
18194;SDS011;9223;50.988;3.162;2023-04-06T23:54:34;5.47;;;3.03;;
